Time;durP1;ratioP1;P1;durP2;ratioP2;P2;SDS_P1;SDS_P2;PMS_P1;PMS_P2;Temp;Humidity;BMP_temperature;BMP_pressure;BME280_temperature;BME280_humidity;BME280_pressure;Samples;Min_cycle;Max_cycle;Signal;HPM_P1;HPM_P2
2023/04/22 00:00:34;;;;;;;;;;;20.30;42.10;;;;;;5091863;28;19927;-65
2023/04/22 00:03:02;;;;;;;;;;;20.30;42.10;;;;;;5079532;28;19928;-65
2023/04/22 00:05:29;;;;;;;;;;;20.30;42.10;;;;;;5077870;28;19970;-63
2023/04/22 00:07:56;;;;;;;;;;;20.30;42.00;;;;;;5089251;28;19920;-63
2023/04/22 00:10:23;;;;;;;;;;;20.30;42.00;;;;;;5091236;28;20370;-61
2023/04/22 00:12:51;;;;;;;;;;;20.30;42.10;;;;;;5074695;28;19966;-63
2023/04/22 00:15:20;;;;;;;;;;;20.30;42.00;;;;;;5094525;28;19920;-64
2023/04/22 00:17:47;;;;;;;;;;;20.30;42.10;;;;;;5061286;28;20016;-64
2023/04/22 00:20:14;;;;;;;;;;;20.30;42.00;;;;;;5094194;28;19920;-61
2023/04/22 00:22:40;;;;;;;;;;;20.30;42.10;;;;;;5055193;28;19930;-64
2023/04/22 00:25:08;;;;;;;;;;;20.30;42.00;;;;;;5055692;28;19921;-62
2023/04/22 00:27:34;;;;;;;;;;;20.30;42.10;;;;;;5062834;28;19981;-63
2023/04/22 00:30:03;;;;;;;;;;;20.30;42.00;;;;;;5092464;28;19924;-64
2023/04/22 00:32:30;;;;;;;;;;;20.30;42.10;;;;;;5076982;28;19927;-62
2023/04/22 00:34:57;;;;;;;;;;;20.30;42.10;;;;;;5072401;28;19919;-63
2023/04/22 00:37:23;;;;;;;;;;;20.30;42.00;;;;;;5091996;28;19942;-61
2023/04/22 00:39:50;;;;;;;;;;;20.30;42.00;;;;;;5075592;28;19920;-65
2023/04/22 00:42:17;;;;;;;;;;;20.30;42.00;;;;;;5075351;28;19920;-65
2023/04/22 00:44:44;;;;;;;;;;;20.30;42.00;;;;;;5071735;28;19924;-64
2023/04/22 00:47:12;;;;;;;;;;;20.30;42.00;;;;;;5074867;28;19950;-65
2023/04/22 00:49:39;;;;;;;;;;;20.30;42.00;;;;;;5091287;28;19974;-64
2023/04/22 00:52:06;;;;;;;;;;;20.30;42.00;;;;;;5072434;28;19921;-65
2023/04/22 00:54:33;;;;;;;;;;;20.30;42.00;;;;;;5058182;28;19921;-65
2023/04/22 00:57:01;;;;;;;;;;;20.30;42.00;;;;;;5087405;28;19920;-63
2023/04/22 00:59:28;;;;;;;;;;;20.30;42.00;;;;;;5073496;28;19929;-62
2023/04/22 01:01:55;;;;;;;;;;;20.30;42.00;;;;;;5073509;28;19920;-64
2023/04/22 01:04:23;;;;;;;;;;;20.30;42.00;;;;;;5066867;28;19955;-65
2023/04/22 01:06:50;;;;;;;;;;;20.30;42.00;;;;;;5077045;28;20005;-63
2023/04/22 01:09:19;;;;;;;;;;;20.30;42.00;;;;;;5070403;28;19998;-64
2023/04/22 01:11:46;;;;;;;;;;;20.30;42.00;;;;;;5062542;28;19920;-63
2023/04/22 01:14:12;;;;;;;;;;;20.30;42.00;;;;;;5066595;28;20122;-64
2023/04/22 01:16:39;;;;;;;;;;;20.30;42.00;;;;;;5085278;28;20027;-63
2023/04/22 01:19:07;;;;;;;;;;;20.30;42.00;;;;;;5069979;28;20285;-63
2023/04/22 01:21:35;;;;;;;;;;;20.30;42.00;;;;;;5074546;28;19956;-64
2023/04/22 01:24:03;;;;;;;;;;;20.30;42.00;;;;;;5071263;28;19950;-63
2023/04/22 01:26:29;;;;;;;;;;;20.30;42.00;;;;;;5085788;28;19920;-62
2023/04/22 01:28:56;;;;;;;;;;;20.30;42.00;;;;;;5087105;28;19973;-64
2023/04/22 01:31:23;;;;;;;;;;;20.30;42.00;;;;;;5075268;28;19921;-65
2023/04/22 01:33:50;;;;;;;;;;;20.30;42.00;;;;;;5074156;28;19966;-65
2023/04/22 01:36:16;;;;;;;;;;;20.30;42.00;;;;;;5071100;28;19920;-64
2023/04/22 01:38:43;;;;;;;;;;;20.30;42.00;;;;;;5068798;28;19924;-63
2023/04/22 01:41:11;;;;;;;;;;;20.30;42.00;;;;;;5072588;28;19921;-65
2023/04/22 01:43:39;;;;;;;;;;;20.30;42.00;;;;;;5073071;28;20041;-63
2023/04/22 01:46:05;;;;;;;;;;;20.30;41.90;;;;;;5068982;28;19920;-64
2023/04/22 01:48:32;;;;;;;;;;;20.30;41.90;;;;;;5058809;28;19932;-65
2023/04/22 01:50:59;;;;;;;;;;;20.30;41.90;;;;;;5086816;28;19942;-63
2023/04/22 01:53:26;;;;;;;;;;;20.30;41.90;;;;;;5080816;28;19920;-64
2023/04/22 01:55:52;;;;;;;;;;;20.30;42.00;;;;;;5072336;28;19924;-64
2023/04/22 01:58:20;;;;;;;;;;;20.30;41.90;;;;;;5089724;28;19920;-64
2023/04/22 02:00:47;;;;;;;;;;;20.30;42.50;;;;;;5076911;28;19950;-65
2023/04/22 02:03:14;;;;;;;;;;;20.30;41.90;;;;;;5095315;28;19970;-65
2023/04/22 02:05:41;;;;;;;;;;;20.30;41.90;;;;;;5089663;28;19919;-65
2023/04/22 02:08:07;;;;;;;;;;;20.30;41.90;;;;;;5071659;28;19966;-63
2023/04/22 02:10:34;;;;;;;;;;;20.30;41.90;;;;;;5054438;28;20302;-64
2023/04/22 02:13:01;;;;;;;;;;;20.30;41.90;;;;;;5074206;28;19950;-65
2023/04/22 02:15:29;;;;;;;;;;;20.30;41.90;;;;;;5083276;28;19977;-65
2023/04/22 02:17:56;;;;;;;;;;;20.30;41.90;;;;;;5072929;28;19961;-64
2023/04/22 02:20:22;;;;;;;;;;;20.30;41.90;;;;;;5077050;28;20300;-65
2023/04/22 02:22:49;;;;;;;;;;;20.30;41.90;;;;;;5068231;28;19920;-65
2023/04/22 02:25:16;;;;;;;;;;;20.30;41.90;;;;;;5085382;28;20019;-64
2023/04/22 02:27:43;;;;;;;;;;;20.30;41.90;;;;;;5054754;28;20019;-65
2023/04/22 02:30:10;;;;;;;;;;;20.30;41.90;;;;;;5070224;28;19970;-64
2023/04/22 02:32:38;;;;;;;;;;;20.30;41.90;;;;;;5077111;28;20375;-63
2023/04/22 02:35:06;;;;;;;;;;;20.30;41.90;;;;;;5088517;28;20330;-63
2023/04/22 02:37:32;;;;;;;;;;;20.30;41.90;;;;;;5071494;28;19928;-64
2023/04/22 02:39:59;;;;;;;;;;;20.30;41.90;;;;;;5068737;28;19925;-64
2023/04/22 02:42:26;;;;;;;;;;;20.30;41.90;;;;;;5079195;28;19920;-65
2023/04/22 02:44:52;;;;;;;;;;;20.30;41.90;;;;;;5093823;28;19979;-65
2023/04/22 02:47:19;;;;;;;;;;;20.30;41.90;;;;;;5079144;28;20030;-63
2023/04/22 02:49:47;;;;;;;;;;;20.30;41.90;;;;;;5071999;28;20007;-64
2023/04/22 02:52:14;;;;;;;;;;;20.30;41.90;;;;;;5089633;28;19920;-64
2023/04/22 02:54:41;;;;;;;;;;;20.30;41.90;;;;;;5069661;28;19928;-64
2023/04/22 02:57:08;;;;;;;;;;;20.30;41.90;;;;;;5060111;28;19920;-64
2023/04/22 02:59:34;;;;;;;;;;;20.30;41.90;;;;;;5088757;28;20023;-64
2023/04/22 03:02:01;;;;;;;;;;;20.30;41.90;;;;;;5088785;28;19932;-62
2023/04/22 03:04:28;;;;;;;;;;;20.30;41.90;;;;;;5071635;28;19920;-64
2023/04/22 03:06:56;;;;;;;;;;;20.30;41.90;;;;;;5089580;28;19924;-64
2023/04/22 03:09:23;;;;;;;;;;;20.30;41.90;;;;;;5070853;28;20255;-64
2023/04/22 03:11:49;;;;;;;;;;;20.30;41.90;;;;;;5066832;28;20420;-63
2023/04/22 03:14:16;;;;;;;;;;;20.30;41.90;;;;;;5088167;28;19970;-64
2023/04/22 03:16:43;;;;;;;;;;;20.30;41.90;;;;;;5082422;28;19924;-64
2023/04/22 03:19:12;;;;;;;;;;;20.30;41.90;;;;;;5078729;28;20621;-63
2023/04/22 03:21:38;;;;;;;;;;;20.30;41.90;;;;;;5085131;28;19939;-63
2023/04/22 03:24:07;;;;;;;;;;;20.30;41.90;;;;;;5085195;28;19924;-63
2023/04/22 03:26:33;;;;;;;;;;;20.30;41.90;;;;;;5081984;28;19924;-64
2023/04/22 03:29:00;;;;;;;;;;;20.30;41.80;;;;;;5070261;28;19989;-64
2023/04/22 03:31:27;;;;;;;;;;;20.30;41.90;;;;;;5069373;28;19920;-64
2023/04/22 03:33:54;;;;;;;;;;;20.30;41.90;;;;;;5081977;28;19974;-64
2023/04/22 03:36:21;;;;;;;;;;;20.30;41.90;;;;;;5059813;28;19943;-65
2023/04/22 03:38:48;;;;;;;;;;;20.30;41.80;;;;;;5082581;28;20273;-66
2023/04/22 03:41:16;;;;;;;;;;;20.30;41.80;;;;;;5063068;28;19924;-65
2023/04/22 03:43:43;;;;;;;;;;;20.30;41.80;;;;;;5075559;28;19924;-65
2023/04/22 03:46:10;;;;;;;;;;;20.30;41.90;;;;;;5088578;28;19927;-65
2023/04/22 03:48:37;;;;;;;;;;;20.30;41.80;;;;;;5085324;28;19921;-65
2023/04/22 03:51:04;;;;;;;;;;;20.30;41.80;;;;;;5073312;28;19965;-65
2023/04/22 03:53:30;;;;;;;;;;;20.30;41.80;;;;;;5076074;28;19974;-65
2023/04/22 03:55:57;;;;;;;;;;;20.30;41.80;;;;;;5076872;28;19920;-65
2023/04/22 03:58:26;;;;;;;;;;;20.30;41.80;;;;;;5059902;28;19920;-65
2023/04/22 04:00:52;;;;;;;;;;;20.30;41.80;;;;;;5065904;28;19955;-65
2023/04/22 04:03:19;;;;;;;;;;;20.30;41.80;;;;;;5087903;28;20286;-61
2023/04/22 04:05:46;;;;;;;;;;;20.30;41.80;;;;;;5060915;28;19966;-62
2023/04/22 04:08:12;;;;;;;;;;;20.30;41.80;;;;;;5081984;28;19927;-63
2023/04/22 04:10:40;;;;;;;;;;;20.30;41.80;;;;;;5074063;28;19920;-65
2023/04/22 04:13:06;;;;;;;;;;;20.30;41.80;;;;;;5060744;28;19970;-65
2023/04/22 04:15:35;;;;;;;;;;;20.30;41.80;;;;;;5074910;28;19924;-65
2023/04/22 04:18:04;;;;;;;;;;;20.30;41.80;;;;;;5077383;28;19928;-64
2023/04/22 04:20:30;;;;;;;;;;;20.30;41.80;;;;;;5071305;28;19920;-63
2023/04/22 04:22:57;;;;;;;;;;;20.30;41.80;;;;;;5088541;28;19974;-64
2023/04/22 04:25:24;;;;;;;;;;;20.30;42.40;;;;;;5071921;28;19939;-64
2023/04/22 04:27:50;;;;;;;;;;;20.30;41.80;;;;;;5071782;28;19974;-62
2023/04/22 04:30:20;;;;;;;;;;;20.30;41.80;;;;;;5054535;28;19927;-65
2023/04/22 04:32:48;;;;;;;;;;;20.30;41.80;;;;;;5078098;28;19927;-64
2023/04/22 04:35:15;;;;;;;;;;;20.30;41.80;;;;;;5072763;28;20452;-64
2023/04/22 04:37:42;;;;;;;;;;;20.30;41.70;;;;;;5061168;28;19924;-64
2023/04/22 04:40:11;;;;;;;;;;;20.30;41.80;;;;;;5075544;28;19925;-65
2023/04/22 04:42:37;;;;;;;;;;;20.20;41.70;;;;;;5081914;28;19921;-65
2023/04/22 04:45:05;;;;;;;;;;;20.30;41.70;;;;;;5070687;28;19965;-65
2023/04/22 04:47:32;;;;;;;;;;;20.30;41.70;;;;;;5090038;28;20281;-65
2023/04/22 04:50:03;;;;;;;;;;;20.30;41.70;;;;;;5072158;28;19963;-64
2023/04/22 04:52:30;;;;;;;;;;;20.30;41.70;;;;;;5073709;28;20016;-65
2023/04/22 04:54:57;;;;;;;;;;;20.30;41.70;;;;;;5071556;28;19920;-66
2023/04/22 04:57:24;;;;;;;;;;;20.30;41.80;;;;;;5079216;28;19955;-65
2023/04/22 04:59:51;;;;;;;;;;;20.30;41.80;;;;;;5087763;28;19927;-65
2023/04/22 05:02:17;;;;;;;;;;;20.30;41.80;;;;;;5074739;28;19985;-65
2023/04/22 05:04:44;;;;;;;;;;;20.20;41.80;;;;;;5091979;28;19923;-65
2023/04/22 05:07:12;;;;;;;;;;;20.30;41.70;;;;;;5079687;28;19925;-65
2023/04/22 05:09:39;;;;;;;;;;;20.30;41.70;;;;;;5083450;28;19920;-65
2023/04/22 05:12:06;;;;;;;;;;;20.20;41.60;;;;;;5069088;28;19927;-65
2023/04/22 05:14:33;;;;;;;;;;;20.30;41.70;;;;;;5079296;28;19924;-65
2023/04/22 05:17:00;;;;;;;;;;;20.30;41.70;;;;;;5069801;28;19927;-65
2023/04/22 05:19:29;;;;;;;;;;;20.20;41.60;;;;;;5075937;28;20282;-64
2023/04/22 05:21:55;;;;;;;;;;;20.30;41.70;;;;;;5060640;28;19932;-61
2023/04/22 05:24:23;;;;;;;;;;;20.30;41.70;;;;;;5072496;28;19921;-65
2023/04/22 05:26:50;;;;;;;;;;;20.30;41.70;;;;;;5086110;28;19920;-65
2023/04/22 05:29:17;;;;;;;;;;;20.30;41.70;;;;;;5072014;28;19952;-65
2023/04/22 05:31:44;;;;;;;;;;;20.30;41.70;;;;;;5067910;28;19981;-64
2023/04/22 05:34:11;;;;;;;;;;;20.30;41.70;;;;;;5074859;28;19924;-64
2023/04/22 05:36:37;;;;;;;;;;;20.30;41.70;;;;;;5074322;28;19928;-64
2023/04/22 05:39:04;;;;;;;;;;;20.30;41.70;;;;;;5071126;28;19924;-65
2023/04/22 05:41:33;;;;;;;;;;;20.30;41.70;;;;;;5074111;28;19962;-65
2023/04/22 05:43:59;;;;;;;;;;;20.30;41.70;;;;;;5057983;28;20329;-65
2023/04/22 05:46:26;;;;;;;;;;;20.20;41.60;;;;;;5087320;28;19981;-62
2023/04/22 05:48:54;;;;;;;;;;;20.30;41.70;;;;;;5057656;28;19920;-65
2023/04/22 05:51:21;;;;;;;;;;;20.30;41.70;;;;;;5074364;28;19921;-65
2023/04/22 05:53:47;;;;;;;;;;;20.30;41.70;;;;;;5072859;28;19927;-65
2023/04/22 05:56:14;;;;;;;;;;;20.20;41.60;;;;;;5070169;28;19947;-62
2023/04/22 05:58:43;;;;;;;;;;;20.30;41.70;;;;;;5069686;28;20282;-63
2023/04/22 06:01:10;;;;;;;;;;;20.30;41.70;;;;;;5062267;28;19920;-64
2023/04/22 06:03:37;;;;;;;;;;;20.30;41.70;;;;;;5077844;28;20019;-64
2023/04/22 06:06:04;;;;;;;;;;;20.20;41.60;;;;;;5072127;28;19962;-63
2023/04/22 06:08:30;;;;;;;;;;;20.30;41.70;;;;;;5072502;28;19991;-64
2023/04/22 06:10:57;;;;;;;;;;;20.30;41.70;;;;;;5073048;28;20349;-64
2023/04/22 06:13:24;;;;;;;;;;;20.30;41.70;;;;;;5071222;28;19967;-65
2023/04/22 06:15:52;;;;;;;;;;;20.20;41.60;;;;;;5085647;28;20237;-65
2023/04/22 06:18:19;;;;;;;;;;;20.30;41.70;;;;;;5059035;28;19927;-65
2023/04/22 06:20:46;;;;;;;;;;;20.30;41.70;;;;;;5074970;28;19920;-65
2023/04/22 06:23:13;;;;;;;;;;;20.30;41.70;;;;;;5079511;28;19920;-66
2023/04/22 06:25:39;;;;;;;;;;;20.30;41.70;;;;;;5070921;28;19967;-66
2023/04/22 06:28:06;;;;;;;;;;;20.30;41.70;;;;;;5071111;28;19920;-63
2023/04/22 06:30:33;;;;;;;;;;;20.30;41.70;;;;;;5071937;28;19920;-66
2023/04/22 06:33:01;;;;;;;;;;;20.30;41.70;;;;;;5071738;28;19920;-66
2023/04/22 06:35:28;;;;;;;;;;;20.30;41.70;;;;;;5085586;28;19920;-66
2023/04/22 06:37:54;;;;;;;;;;;20.20;41.60;;;;;;5062064;28;19932;-65
2023/04/22 06:40:21;;;;;;;;;;;20.30;41.70;;;;;;5088945;28;19920;-64
2023/04/22 06:42:48;;;;;;;;;;;20.30;41.70;;;;;;5083478;28;20046;-63
2023/04/22 06:45:15;;;;;;;;;;;20.30;41.70;;;;;;5081671;28;19924;-64
2023/04/22 06:47:42;;;;;;;;;;;20.30;41.70;;;;;;5081054;28;20279;-63
2023/04/22 06:50:11;;;;;;;;;;;20.30;41.70;;;;;;5071822;28;19924;-65
2023/04/22 06:52:38;;;;;;;;;;;20.30;41.80;;;;;;5065419;28;19936;-65
2023/04/22 06:55:05;;;;;;;;;;;20.30;41.70;;;;;;5081760;28;19970;-66
2023/04/22 06:57:32;;;;;;;;;;;20.30;41.70;;;;;;5056745;28;19921;-66
2023/04/22 06:59:58;;;;;;;;;;;20.30;41.70;;;;;;5056067;28;19974;-66
2023/04/22 07:02:25;;;;;;;;;;;20.30;41.70;;;;;;5072667;28;19935;-66
2023/04/22 07:04:52;;;;;;;;;;;20.30;41.70;;;;;;5087677;28;19943;-65
2023/04/22 07:07:20;;;;;;;;;;;20.30;41.70;;;;;;5071857;28;19924;-66
2023/04/22 07:09:47;;;;;;;;;;;20.30;41.70;;;;;;5089035;28;20399;-63
2023/04/22 07:12:14;;;;;;;;;;;20.30;41.70;;;;;;5092106;28;20305;-65
2023/04/22 07:14:42;;;;;;;;;;;20.30;41.70;;;;;;5089083;28;19988;-65
2023/04/22 07:17:09;;;;;;;;;;;20.30;41.70;;;;;;5073628;28;19920;-65
2023/04/22 07:19:36;;;;;;;;;;;20.30;41.70;;;;;;5076634;28;19979;-66
2023/04/22 07:22:03;;;;;;;;;;;20.30;41.70;;;;;;5083295;28;19920;-64
2023/04/22 07:24:31;;;;;;;;;;;20.30;41.70;;;;;;5068754;28;19926;-66
2023/04/22 07:26:58;;;;;;;;;;;20.30;41.80;;;;;;5061507;28;19955;-65
2023/04/22 07:29:24;;;;;;;;;;;20.30;41.70;;;;;;5081676;28;19924;-66
2023/04/22 07:31:51;;;;;;;;;;;20.30;41.80;;;;;;5086249;28;19936;-63
2023/04/22 07:34:18;;;;;;;;;;;20.30;41.80;;;;;;5055997;28;20309;-66
2023/04/22 07:36:45;;;;;;;;;;;20.30;41.70;;;;;;5073619;28;20396;-66
2023/04/22 07:39:12;;;;;;;;;;;20.30;41.70;;;;;;5055442;28;20333;-66
2023/04/22 07:41:40;;;;;;;;;;;20.30;41.80;;;;;;5055224;28;19924;-65
2023/04/22 07:44:06;;;;;;;;;;;20.30;41.80;;;;;;5062448;28;19926;-65
2023/04/22 07:46:33;;;;;;;;;;;20.30;41.80;;;;;;5083064;28;19920;-67
2023/04/22 07:49:00;;;;;;;;;;;20.30;41.80;;;;;;5073232;28;19969;-65
2023/04/22 07:51:27;;;;;;;;;;;20.30;41.80;;;;;;5072695;28;19920;-67
2023/04/22 07:53:54;;;;;;;;;;;20.30;41.80;;;;;;5088831;28;20305;-66
2023/04/22 07:56:21;;;;;;;;;;;20.30;41.80;;;;;;5057077;28;19920;-66
2023/04/22 07:58:49;;;;;;;;;;;20.30;41.80;;;;;;5073687;28;19927;-67
2023/04/22 08:01:16;;;;;;;;;;;20.30;42.40;;;;;;5070521;28;19925;-66
2023/04/22 08:03:43;;;;;;;;;;;20.30;41.80;;;;;;5073373;28;19968;-67
2023/04/22 08:06:09;;;;;;;;;;;20.30;41.80;;;;;;5080445;28;19920;-66
2023/04/22 08:08:36;;;;;;;;;;;20.30;41.80;;;;;;5090485;28;19923;-66
2023/04/22 08:11:03;;;;;;;;;;;20.30;41.80;;;;;;5075617;28;19920;-66
2023/04/22 08:13:30;;;;;;;;;;;20.30;41.80;;;;;;5065181;28;19920;-66
2023/04/22 08:15:59;;;;;;;;;;;20.30;41.80;;;;;;5060316;28;19962;-67
2023/04/22 08:18:26;;;;;;;;;;;20.30;41.80;;;;;;5055065;28;19931;-66
2023/04/22 08:20:53;;;;;;;;;;;20.30;41.80;;;;;;5088432;28;19950;-66
2023/04/22 08:23:20;;;;;;;;;;;20.30;41.80;;;;;;5076010;28;19920;-67
2023/04/22 08:25:47;;;;;;;;;;;20.30;41.80;;;;;;5076784;28;19927;-66
2023/04/22 08:28:13;;;;;;;;;;;20.30;41.80;;;;;;5076869;28;19965;-67
2023/04/22 08:30:40;;;;;;;;;;;20.30;41.80;;;;;;5091635;28;19969;-67
2023/04/22 08:33:08;;;;;;;;;;;20.40;41.90;;;;;;5064640;28;19920;-66
2023/04/22 08:35:35;;;;;;;;;;;20.30;41.90;;;;;;5066871;28;19920;-64
2023/04/22 08:38:02;;;;;;;;;;;20.30;41.80;;;;;;5069553;28;19920;-65
2023/04/22 08:40:28;;;;;;;;;;;20.30;41.90;;;;;;5067235;28;19974;-66
2023/04/22 08:42:55;;;;;;;;;;;20.30;41.90;;;;;;5080896;28;19936;-66
2023/04/22 08:45:22;;;;;;;;;;;20.30;41.80;;;;;;5059452;28;19971;-65
2023/04/22 08:47:49;;;;;;;;;;;20.30;41.80;;;;;;5087875;28;19974;-64
2023/04/22 08:50:18;;;;;;;;;;;20.30;41.80;;;;;;5084343;28;19970;-67
2023/04/22 08:52:44;;;;;;;;;;;20.30;41.90;;;;;;5069155;28;19933;-66
2023/04/22 08:55:11;;;;;;;;;;;20.30;41.90;;;;;;5083029;28;19987;-67
2023/04/22 08:57:38;;;;;;;;;;;20.30;41.90;;;;;;5067694;28;19926;-65
2023/04/22 09:00:05;;;;;;;;;;;20.30;41.90;;;;;;5076387;28;19920;-66
2023/04/22 09:02:32;;;;;;;;;;;20.30;41.90;;;;;;5096413;28;20247;-66
2023/04/22 09:04:59;;;;;;;;;;;20.30;41.80;;;;;;5078310;28;20308;-66
2023/04/22 09:07:28;;;;;;;;;;;20.40;41.90;;;;;;5071573;28;19932;-63
2023/04/22 09:09:55;;;;;;;;;;;20.40;41.90;;;;;;5086563;28;19920;-66
2023/04/22 09:12:22;;;;;;;;;;;20.40;41.90;;;;;;5071631;28;19970;-64
2023/04/22 09:14:49;;;;;;;;;;;20.40;41.90;;;;;;5073597;28;19920;-66
2023/04/22 09:17:16;;;;;;;;;;;20.40;41.90;;;;;;5072074;28;19920;-65
2023/04/22 09:19:43;;;;;;;;;;;20.40;41.90;;;;;;5076243;28;19924;-67
2023/04/22 09:22:12;;;;;;;;;;;20.40;41.90;;;;;;5078037;28;19920;-62
2023/04/22 09:24:43;;;;;;;;;;;20.40;41.90;;;;;;5095099;28;19955;-65
2023/04/22 09:27:10;;;;;;;;;;;20.40;42.00;;;;;;5087552;28;19920;-63
2023/04/22 09:29:37;;;;;;;;;;;20.40;42.00;;;;;;5065346;28;19932;-64
2023/04/22 09:32:08;;;;;;;;;;;20.40;42.00;;;;;;5070003;28;20388;-64
2023/04/22 09:34:36;;;;;;;;;;;20.30;41.70;;;;;;5085838;28;19927;-64
2023/04/22 09:37:04;;;;;;;;;;;20.40;41.70;;;;;;5074780;28;19955;-63
2023/04/22 09:39:30;;;;;;;;;;;20.40;41.50;;;;;;5078693;28;19920;-63
2023/04/22 09:41:58;;;;;;;;;;;20.30;41.40;;;;;;5085527;28;19932;-63
2023/04/22 09:44:26;;;;;;;;;;;20.30;41.40;;;;;;5063006;28;19955;-60
2023/04/22 09:46:53;;;;;;;;;;;20.30;41.50;;;;;;5081655;28;19927;-64
2023/04/22 09:49:20;;;;;;;;;;;20.30;41.50;;;;;;5081984;28;19924;-64
2023/04/22 09:51:47;;;;;;;;;;;20.30;41.50;;;;;;5066935;28;20346;-63
2023/04/22 09:54:14;;;;;;;;;;;20.30;41.40;;;;;;5066226;28;19958;-64
2023/04/22 09:56:41;;;;;;;;;;;20.30;41.30;;;;;;5080737;28;19920;-63
2023/04/22 09:59:10;;;;;;;;;;;20.30;41.20;;;;;;5075718;28;20011;-63
2023/04/22 10:01:38;;;;;;;;;;;20.30;41.20;;;;;;5064187;28;19920;-60
2023/04/22 10:04:04;;;;;;;;;;;20.30;41.20;;;;;;5062423;28;19967;-67
2023/04/22 10:06:32;;;;;;;;;;;20.30;41.10;;;;;;5073936;28;19969;-60
2023/04/22 10:08:59;;;;;;;;;;;20.20;41.00;;;;;;5071201;28;19946;-62
2023/04/22 10:11:25;;;;;;;;;;;20.20;40.90;;;;;;5064266;28;20289;-62
2023/04/22 10:13:53;;;;;;;;;;;20.20;40.90;;;;;;5096551;28;19945;-61
2023/04/22 10:16:21;;;;;;;;;;;20.20;40.90;;;;;;5082528;28;19954;-63
2023/04/22 10:18:48;;;;;;;;;;;20.20;40.70;;;;;;5054885;28;20275;-63
2023/04/22 10:21:14;;;;;;;;;;;20.20;40.50;;;;;;5062440;28;19949;-61
2023/04/22 10:23:45;;;;;;;;;;;20.20;40.40;;;;;;5079358;28;19924;-62
2023/04/22 10:26:12;;;;;;;;;;;20.20;40.40;;;;;;5078270;28;19985;-62
2023/04/22 10:28:41;;;;;;;;;;;20.20;40.40;;;;;;5060349;28;19973;-62
2023/04/22 10:31:14;;;;;;;;;;;20.20;40.50;;;;;;5077296;28;19942;-61
2023/04/22 10:33:42;;;;;;;;;;;20.20;40.60;;;;;;5081298;28;19920;-62
2023/04/22 10:36:09;;;;;;;;;;;20.20;40.60;;;;;;5067362;28;19920;-62
2023/04/22 10:38:36;;;;;;;;;;;20.10;40.50;;;;;;5092385;28;19920;-61
2023/04/22 10:41:03;;;;;;;;;;;20.20;40.70;;;;;;5060560;28;19954;-62
2023/04/22 10:43:43;;;;;;;;;;;20.20;40.70;;;;;;5061665;28;19986;-62
2023/04/22 10:46:24;;;;;;;;;;;20.20;40.80;;;;;;5064203;28;19919;-63
2023/04/22 10:48:52;;;;;;;;;;;20.20;40.60;;;;;;5081219;28;19920;-63
2023/04/22 10:51:38;;;;;;;;;;;20.20;40.30;;;;;;5085404;28;19932;-58
2023/04/22 10:54:05;;;;;;;;;;;20.20;40.30;;;;;;5083015;28;19920;-62
2023/04/22 10:56:31;;;;;;;;;;;20.20;40.50;;;;;;5082786;28;19947;-62
2023/04/22 10:58:58;;;;;;;;;;;20.20;40.40;;;;;;5078967;28;19973;-62
2023/04/22 11:01:27;;;;;;;;;;;20.20;40.30;;;;;;5060380;28;19920;-62
2023/04/22 11:03:55;;;;;;;;;;;20.20;40.40;;;;;;5085605;28;19920;-61
2023/04/22 11:06:26;;;;;;;;;;;20.10;40.40;;;;;;5070861;28;20009;-62
2023/04/22 11:09:07;;;;;;;;;;;20.20;40.50;;;;;;5060654;28;19921;-61
2023/04/22 11:11:33;;;;;;;;;;;20.20;40.60;;;;;;5063047;28;19959;-62
2023/04/22 11:14:00;;;;;;;;;;;20.20;40.70;;;;;;5065243;28;19963;-59
2023/04/22 11:16:27;;;;;;;;;;;20.20;40.80;;;;;;5055869;28;20259;-61
2023/04/22 11:18:56;;;;;;;;;;;20.20;40.80;;;;;;5083802;28;20012;-60
2023/04/22 11:21:23;;;;;;;;;;;20.20;40.80;;;;;;5077192;28;20144;-59
2023/04/22 11:23:49;;;;;;;;;;;20.20;40.70;;;;;;5083627;28;19920;-60
2023/04/22 11:26:16;;;;;;;;;;;20.20;40.80;;;;;;5060234;28;19968;-60
2023/04/22 11:28:45;;;;;;;;;;;20.20;40.90;;;;;;5080860;28;19978;-58
2023/04/22 11:31:13;;;;;;;;;;;20.20;40.90;;;;;;5061088;28;19920;-61
2023/04/22 11:33:40;;;;;;;;;;;20.20;40.90;;;;;;5073691;28;20014;-60
2023/04/22 11:36:11;;;;;;;;;;;20.20;40.90;;;;;;5057407;28;19921;-60
2023/04/22 11:38:38;;;;;;;;;;;20.20;40.90;;;;;;5062822;28;20370;-61
2023/04/22 11:41:05;;;;;;;;;;;20.20;40.90;;;;;;5061060;28;19970;-60
2023/04/22 11:43:31;;;;;;;;;;;20.20;40.70;;;;;;5087315;28;19920;-59
2023/04/22 11:45:58;;;;;;;;;;;20.20;40.60;;;;;;5083305;28;19924;-60
2023/04/22 11:48:25;;;;;;;;;;;20.20;40.60;;;;;;5059092;28;19927;-60
2023/04/22 11:50:58;;;;;;;;;;;20.20;40.70;;;;;;5064623;28;19997;-60
2023/04/22 11:53:26;;;;;;;;;;;20.30;41.10;;;;;;5083342;28;19920;-60
2023/04/22 11:55:53;;;;;;;;;;;20.30;40.60;;;;;;5065600;28;20214;-61
2023/04/22 11:58:20;;;;;;;;;;;20.30;40.40;;;;;;5085031;28;19961;-60
2023/04/22 12:00:47;;;;;;;;;;;20.30;40.40;;;;;;5084980;28;19948;-61
2023/04/22 12:03:14;;;;;;;;;;;20.30;40.50;;;;;;5071919;28;20017;-61
2023/04/22 12:05:42;;;;;;;;;;;20.30;40.40;;;;;;5088289;28;20358;-61
2023/04/22 12:08:09;;;;;;;;;;;20.30;40.50;;;;;;5061311;28;19924;-61
2023/04/22 12:10:41;;;;;;;;;;;20.30;40.50;;;;;;5063013;28;19920;-62
2023/04/22 12:13:08;;;;;;;;;;;20.30;40.40;;;;;;5078146;28;19927;-62
2023/04/22 12:15:38;;;;;;;;;;;20.30;40.40;;;;;;5088509;28;19920;-63
2023/04/22 12:18:06;;;;;;;;;;;20.30;40.50;;;;;;5087671;28;19920;-62
2023/04/22 12:20:33;;;;;;;;;;;20.30;40.50;;;;;;5081127;28;20015;-61
2023/04/22 12:22:59;;;;;;;;;;;20.30;40.60;;;;;;5086310;28;19958;-61
2023/04/22 12:25:26;;;;;;;;;;;20.40;40.60;;;;;;5066427;28;19920;-62
2023/04/22 12:27:54;;;;;;;;;;;20.40;40.60;;;;;;5067559;28;19975;-58
2023/04/22 12:30:22;;;;;;;;;;;20.40;40.60;;;;;;5063734;28;19919;-60
2023/04/22 12:32:49;;;;;;;;;;;20.40;40.60;;;;;;5067525;28;20002;-62
2023/04/22 12:35:16;;;;;;;;;;;20.40;40.40;;;;;;5084414;28;20317;-62
2023/04/22 12:37:42;;;;;;;;;;;20.40;40.30;;;;;;5088439;28;19970;-62
2023/04/22 12:40:10;;;;;;;;;;;20.40;40.30;;;;;;5061639;28;19942;-62
2023/04/22 12:42:37;;;;;;;;;;;20.40;40.20;;;;;;5062921;28;19920;-62
2023/04/22 12:45:07;;;;;;;;;;;20.40;40.30;;;;;;5078301;28;20305;-61
2023/04/22 12:47:34;;;;;;;;;;;20.40;40.40;;;;;;5084602;28;19935;-62
2023/04/22 12:50:05;;;;;;;;;;;20.40;40.50;;;;;;5065357;28;19970;-61
2023/04/22 12:52:32;;;;;;;;;;;20.40;40.40;;;;;;5065148;28;19921;-61
2023/04/22 12:54:59;;;;;;;;;;;20.40;40.40;;;;;;5059298;28;20394;-60
2023/04/22 12:57:25;;;;;;;;;;;20.40;40.40;;;;;;5080064;28;19924;-60
2023/04/22 12:59:52;;;;;;;;;;;20.40;40.50;;;;;;5076945;28;19968;-59
2023/04/22 13:02:20;;;;;;;;;;;20.40;40.50;;;;;;5064831;28;19924;-62
2023/04/22 13:04:47;;;;;;;;;;;20.40;40.20;;;;;;5083628;28;19927;-61
2023/04/22 13:07:16;;;;;;;;;;;20.40;40.30;;;;;;5060214;28;20305;-61
2023/04/22 13:09:43;;;;;;;;;;;20.40;40.20;;;;;;5064943;28;19947;-62
2023/04/22 13:12:09;;;;;;;;;;;20.40;40.20;;;;;;5059923;28;20151;-61
2023/04/22 13:14:36;;;;;;;;;;;20.40;40.30;;;;;;5081634;28;19920;-61
2023/04/22 13:17:03;;;;;;;;;;;20.40;40.20;;;;;;5014689;28;1790091;-59
2023/04/22 13:19:34;;;;;;;;;;;20.40;40.30;;;;;;5068211;28;20015;-57
2023/04/22 13:22:01;;;;;;;;;;;20.40;40.30;;;;;;5065134;28;20290;-61
2023/04/22 13:24:27;;;;;;;;;;;20.40;40.40;;;;;;5068316;28;19921;-60
2023/04/22 13:26:54;;;;;;;;;;;20.40;40.30;;;;;;5076076;28;19993;-62
2023/04/22 13:29:21;;;;;;;;;;;20.40;40.20;;;;;;5061883;28;20298;-60
2023/04/22 13:31:48;;;;;;;;;;;20.40;40.10;;;;;;5080513;28;19920;-61
2023/04/22 13:34:15;;;;;;;;;;;20.40;40.10;;;;;;5061540;28;19925;-61
2023/04/22 13:36:44;;;;;;;;;;;20.40;40.20;;;;;;5081090;28;19927;-62
2023/04/22 13:39:11;;;;;;;;;;;20.40;40.20;;;;;;5083737;28;19935;-59
2023/04/22 13:41:38;;;;;;;;;;;20.40;40.10;;;;;;5083834;28;19924;-59
2023/04/22 13:44:05;;;;;;;;;;;20.40;40.00;;;;;;5077991;28;19924;-60
2023/04/22 13:46:31;;;;;;;;;;;20.50;40.20;;;;;;5076812;28;19969;-61
2023/04/22 13:48:58;;;;;;;;;;;20.50;40.30;;;;;;5077836;28;19920;-60
2023/04/22 13:51:25;;;;;;;;;;;20.50;40.20;;;;;;5063162;28;19970;-61
2023/04/22 13:53:53;;;;;;;;;;;20.50;40.30;;;;;;5080163;28;19981;-61
2023/04/22 13:56:20;;;;;;;;;;;20.50;40.20;;;;;;5056712;28;19952;-61
2023/04/22 13:58:47;;;;;;;;;;;20.50;40.30;;;;;;5066354;28;19924;-62
2023/04/22 14:01:14;;;;;;;;;;;20.50;40.30;;;;;;5070232;28;19981;-61
2023/04/22 14:03:41;;;;;;;;;;;20.50;40.30;;;;;;5074351;28;19940;-59
2023/04/22 14:06:08;;;;;;;;;;;20.50;40.30;;;;;;5079439;28;20021;-60
2023/04/22 14:08:35;;;;;;;;;;;20.50;40.40;;;;;;5076343;28;19920;-61
2023/04/22 14:11:03;;;;;;;;;;;20.50;40.30;;;;;;5081289;28;19924;-60
2023/04/22 14:13:30;;;;;;;;;;;20.50;40.30;;;;;;5085488;28;19930;-61
2023/04/22 14:15:57;;;;;;;;;;;20.50;40.30;;;;;;5062683;28;19927;-60